Miami, Florida
Traffic Map
Current Weather Conditions
Miami, Florida
Broken Clouds
Broken Clouds
27°
Feels Like: 27°
Wind Chill: 27° Ceiling: 5000
Heat Index: 27° Visibility: 10mi
Dew Point: 16° Wind: 9mph
Humidity: 52% Direction: 40° (NE)
Pressure: 29.89in Gusts: 0mph
Raw Report DataKMIA 252053Z 04008KT 10SM BKN050 BKN300 27/16 A2989 RMK AO2 SLP120 T02670161 55004
Traffic Incident Summary
Active as of:
Severity:
Category:
InformationThere was an issue retrieving the traffic information for this location. Please try a different location or try again shortly.
Advertisements
Track Severe Weather on mobile